Time;durP1;ratioP1;P1;durP2;ratioP2;P2;SDS_P1;SDS_P2;PMS_P1;PMS_P2;Temp;Humidity;BMP_temperature;BMP_pressure;BME280_temperature;BME280_humidity;BME280_pressure;Samples;Min_cycle;Max_cycle;Signal;HPM_P1;HPM_P2
2022/03/17 00:02:18;;;;;;;12.20;1.92;;;7.20;99.90;;;;;;4433811;32;20080;-65
2022/03/17 00:04:44;;;;;;;5.87;1.77;;;7.20;99.90;;;;;;4438350;32;20089;-65
2022/03/17 00:07:09;;;;;;;5.22;2.47;;;7.20;99.90;;;;;;4431789;32;20437;-65
2022/03/17 00:09:35;;;;;;;2.22;1.98;;;7.20;99.90;;;;;;4428239;32;20058;-65
2022/03/17 00:12:00;;;;;;;8.45;1.58;;;7.20;99.90;;;;;;4430524;32;20088;-66
2022/03/17 00:14:26;;;;;;;3.83;2.17;;;7.20;99.90;;;;;;4432153;32;20415;-66
2022/03/17 00:16:51;;;;;;;1.15;1.05;;;7.20;99.90;;;;;;4429741;32;20214;-66
2022/03/17 00:19:17;;;;;;;6.53;2.30;;;7.20;99.90;;;;;;4430330;32;20065;-65
2022/03/17 00:21:42;;;;;;;4.25;1.80;;;7.20;99.90;;;;;;4429210;32;20112;-66
2022/03/17 00:24:08;;;;;;;16.65;2.97;;;7.20;99.90;;;;;;4432707;32;20076;-65
2022/03/17 00:26:35;;;;;;;4.47;1.73;;;7.20;99.90;;;;;;4433121;32;20065;-65
2022/03/17 00:29:03;;;;;;;2.58;1.35;;;7.20;99.90;;;;;;4431263;32;20163;-65
2022/03/17 00:31:29;;;;;;;2.78;1.92;;;7.10;99.90;;;;;;4437107;32;20077;-65
2022/03/17 00:33:55;;;;;;;4.40;1.95;;;7.00;99.90;;;;;;4435788;32;20394;-65
2022/03/17 00:36:20;;;;;;;5.07;1.98;;;6.90;99.90;;;;;;4433408;32;20123;-65
2022/03/17 00:38:46;;;;;;;1.55;1.45;;;7.00;99.90;;;;;;4437237;32;20542;-65
2022/03/17 00:41:11;;;;;;;6.45;2.10;;;7.10;99.90;;;;;;4435299;32;20077;-65
2022/03/17 00:43:37;;;;;;;2.10;1.85;;;7.20;99.90;;;;;;4434441;32;20395;-65
2022/03/17 00:46:03;;;;;;;1.37;1.15;;;7.20;99.90;;;;;;4431124;32;20081;-65
2022/03/17 00:48:29;;;;;;;12.88;2.92;;;7.10;99.90;;;;;;4429684;32;20082;-65
2022/03/17 00:50:54;;;;;;;2.45;1.67;;;7.10;99.90;;;;;;4433350;32;20081;-65
2022/03/17 00:53:20;;;;;;;1.25;1.02;;;7.00;99.90;;;;;;4433714;32;20097;-65
2022/03/17 00:55:45;;;;;;;7.22;2.50;;;7.00;99.90;;;;;;4433545;32;20566;-65
2022/03/17 00:58:11;;;;;;;2.17;1.45;;;6.90;99.90;;;;;;4432044;32;20080;-65
2022/03/17 01:00:37;;;;;;;1.80;1.42;;;7.00;99.90;;;;;;4436593;32;20088;-66
2022/03/17 01:03:05;;;;;;;3.22;1.15;;;7.00;99.90;;;;;;4435770;32;20509;-66
2022/03/17 01:05:30;;;;;;;1.33;0.88;;;6.90;99.90;;;;;;4433330;32;20081;-65
2022/03/17 01:07:56;;;;;;;2.35;2.00;;;6.90;99.90;;;;;;4436070;32;20073;-65
2022/03/17 01:10:23;;;;;;;4.97;2.37;;;6.90;99.90;;;;;;4431200;32;20108;-65
2022/03/17 01:12:50;;;;;;;3.28;2.17;;;6.90;99.90;;;;;;4428707;32;20117;-65
2022/03/17 01:15:17;;;;;;;5.22;2.15;;;6.90;99.90;;;;;;4428541;32;20133;-66
2022/03/17 01:17:42;;;;;;;3.08;1.52;;;6.80;99.90;;;;;;4434031;32;20061;-65
2022/03/17 01:20:09;;;;;;;3.70;1.60;;;6.80;99.90;;;;;;4433346;32;20082;-66
2022/03/17 01:22:35;;;;;;;5.95;1.37;;;6.80;99.90;;;;;;4436086;32;20070;-66
2022/03/17 01:25:00;;;;;;;4.20;1.55;;;6.70;99.90;;;;;;4436985;32;20065;-66
2022/03/17 01:27:26;;;;;;;7.55;1.70;;;6.80;99.90;;;;;;4434114;32;20116;-66
2022/03/17 01:29:53;;;;;;;1.60;1.25;;;6.70;99.90;;;;;;4438729;32;20477;-65
2022/03/17 01:32:20;;;;;;;3.33;1.58;;;6.60;99.90;;;;;;4432013;32;20078;-65
2022/03/17 01:34:46;;;;;;;0.95;0.95;;;6.60;99.90;;;;;;4436283;32;20089;-65
2022/03/17 01:37:12;;;;;;;2.10;1.60;;;6.70;99.90;;;;;;4436655;32;20068;-65
2022/03/17 01:39:38;;;;;;;5.72;1.65;;;6.70;99.90;;;;;;4435073;32;20462;-65
2022/03/17 01:42:06;;;;;;;17.15;2.70;;;6.70;99.90;;;;;;4437587;32;20078;-65
2022/03/17 01:44:32;;;;;;;6.00;2.05;;;6.60;99.90;;;;;;4433972;32;20069;-65
2022/03/17 01:47:31;;;;;;;1.73;1.20;;;6.70;99.90;;;;;;4433118;32;20558;-65
2022/03/17 01:49:44;;;;;;;1.15;1.08;;;6.70;99.90;;;;;;4426017;32;20093;-65
2022/03/17 01:52:10;;;;;;;1.62;1.40;;;6.70;99.90;;;;;;4432755;32;20066;-65
2022/03/17 01:54:35;;;;;;;1.95;1.33;;;6.70;99.90;;;;;;4440822;32;20081;-65
2022/03/17 01:57:03;;;;;;;5.60;2.28;;;6.60;99.90;;;;;;4433813;32;20081;-66
2022/03/17 01:59:31;;;;;;;2.22;1.35;;;6.50;99.90;;;;;;4437358;32;20085;-65
2022/03/17 02:01:57;;;;;;;5.37;2.00;;;6.50;99.90;;;;;;4435392;32;20146;-65
2022/03/17 02:04:24;;;;;;;2.83;1.80;;;6.50;99.90;;;;;;4434613;32;20730;-65
2022/03/17 02:06:50;;;;;;;3.35;1.50;;;6.50;99.90;;;;;;4434356;32;20065;-65
2022/03/17 02:09:15;;;;;;;4.57;1.30;;;6.40;99.90;;;;;;4439017;32;20073;-65
2022/03/17 02:13:11;;;;;;;4.93;1.95;;;6.50;99.90;;;;;;4435019;32;20085;-65
2022/03/17 02:14:28;;;;;;;4.65;2.12;;;6.50;99.90;;;;;;4425134;32;20080;-65
2022/03/17 02:16:56;;;;;;;5.20;1.62;;;6.40;99.90;;;;;;4440648;32;20419;-65
2022/03/17 02:19:22;;;;;;;3.08;2.03;;;6.40;99.90;;;;;;4433330;32;20477;-65
2022/03/17 02:21:49;;;;;;;4.15;3.05;;;6.40;99.90;;;;;;4435155;32;20121;-65
2022/03/17 02:25:47;;;;;;;3.58;2.08;;;6.40;99.90;;;;;;4436814;32;20065;-65
2022/03/17 02:27:02;;;;;;;4.18;2.05;;;6.40;99.90;;;;;;4422990;32;20069;-65
2022/03/17 02:29:28;;;;;;;7.62;2.00;;;6.50;99.90;;;;;;4436173;32;20092;-65
2022/03/17 02:31:55;;;;;;;3.58;1.67;;;6.40;99.90;;;;;;4434455;32;20510;-65
2022/03/17 02:34:20;;;;;;;1.77;1.42;;;6.50;99.90;;;;;;4436404;32;20137;-65
2022/03/17 02:36:48;;;;;;;1.55;1.33;;;6.50;99.90;;;;;;4434045;32;20371;-66
2022/03/17 02:39:17;;;;;;;7.78;1.35;;;6.40;99.90;;;;;;4435478;32;20077;-65
2022/03/17 02:41:43;;;;;;;8.00;2.42;;;6.40;99.90;;;;;;4434779;32;20065;-65
2022/03/17 02:44:10;;;;;;;3.28;2.42;;;6.30;99.90;;;;;;4437514;32;20573;-65
2022/03/17 02:46:35;;;;;;;3.40;1.48;;;6.30;99.90;;;;;;4433176;32;20057;-66
2022/03/17 02:49:01;;;;;;;15.00;2.62;;;6.30;99.90;;;;;;4436010;32;20077;-65
2022/03/17 02:51:26;;;;;;;8.77;3.22;;;6.30;99.90;;;;;;4432542;32;20100;-65
2022/03/17 02:53:52;;;;;;;6.65;1.75;;;6.30;99.90;;;;;;4436127;32;20151;-65
2022/03/17 02:56:17;;;;;;;6.55;2.15;;;6.30;99.90;;;;;;4433700;32;20077;-65
2022/03/17 02:58:43;;;;;;;4.00;2.30;;;6.30;99.90;;;;;;4434371;32;20080;-65
2022/03/17 03:01:09;;;;;;;4.22;2.28;;;6.30;99.90;;;;;;4433976;32;20074;-65
2022/03/17 03:03:34;;;;;;;2.70;1.87;;;6.30;99.90;;;;;;4432970;32;20090;-65
2022/03/17 03:06:00;;;;;;;3.92;2.15;;;6.30;99.90;;;;;;4435808;32;20521;-65
2022/03/17 03:08:26;;;;;;;2.33;1.90;;;6.30;99.90;;;;;;4437610;32;20068;-65
2022/03/17 03:10:51;;;;;;;1.55;1.23;;;6.30;99.90;;;;;;4432705;32;20101;-65
2022/03/17 03:13:17;;;;;;;6.22;1.73;;;6.30;99.90;;;;;;4437140;32;20514;-66
2022/03/17 03:15:43;;;;;;;5.87;2.55;;;6.30;99.90;;;;;;4435301;32;20073;-66
2022/03/17 03:18:08;;;;;;;4.45;1.37;;;6.30;99.90;;;;;;4439898;32;20123;-66
2022/03/17 03:20:34;;;;;;;7.30;2.72;;;6.30;99.90;;;;;;4437836;32;20501;-66
2022/03/17 03:22:59;;;;;;;4.18;2.35;;;6.20;99.90;;;;;;4438436;32;20069;-66
2022/03/17 03:25:25;;;;;;;2.45;1.52;;;6.20;99.90;;;;;;4435960;32;20065;-66
2022/03/17 03:27:51;;;;;;;3.15;1.95;;;6.20;99.90;;;;;;4422412;32;20092;-66
2022/03/17 03:30:18;;;;;;;14.15;2.62;;;6.20;99.90;;;;;;4436964;32;20089;-66
2022/03/17 03:32:45;;;;;;;1.98;1.52;;;6.20;99.90;;;;;;4437799;32;20061;-65
2022/03/17 03:37:28;;;;;;;14.40;3.42;;;6.20;99.90;;;;;;4431488;32;20156;-65
2022/03/17 03:37:58;;;;;;;5.57;2.70;;;6.30;99.90;;;;;;4420857;32;20092;-66
2022/03/17 03:40:24;;;;;;;2.90;1.10;;;6.20;99.90;;;;;;4434103;32;20112;-65
2022/03/17 03:42:49;;;;;;;8.68;3.62;;;6.20;99.90;;;;;;4431443;32;20092;-65
2022/03/17 03:45:15;;;;;;;3.62;1.85;;;6.10;99.90;;;;;;4436838;32;20426;-65
2022/03/17 03:47:40;;;;;;;6.47;2.35;;;6.10;99.90;;;;;;4436615;32;20108;-65
2022/03/17 03:50:06;;;;;;;2.75;1.33;;;6.10;99.90;;;;;;4436457;32;20070;-65
2022/03/17 03:52:32;;;;;;;3.67;2.58;;;6.10;99.90;;;;;;4435023;32;20116;-65
2022/03/17 03:54:57;;;;;;;4.82;2.20;;;6.10;99.90;;;;;;4433452;32;20465;-65
2022/03/17 03:57:24;;;;;;;4.35;2.25;;;6.10;99.90;;;;;;4436549;32;20541;-65
2022/03/17 03:59:49;;;;;;;6.10;2.42;;;6.10;99.90;;;;;;4431529;32;20082;-65
2022/03/17 04:02:15;;;;;;;2.30;1.92;;;6.10;99.90;;;;;;4431784;32;20061;-65
2022/03/17 04:04:41;;;;;;;2.47;2.00;;;6.00;99.90;;;;;;4435330;32;20056;-65
2022/03/17 04:07:10;;;;;;;2.50;1.67;;;5.90;99.90;;;;;;4434675;32;20062;-65
2022/03/17 04:09:40;;;;;;;6.87;1.98;;;5.90;99.90;;;;;;4433540;32;20577;-65
2022/03/17 04:12:09;;;;;;;3.72;1.58;;;5.80;99.90;;;;;;4434775;32;20061;-66
2022/03/17 04:14:35;;;;;;;4.07;2.42;;;5.80;99.90;;;;;;4432267;32;20085;-66
2022/03/17 04:17:00;;;;;;;3.92;2.30;;;5.80;99.90;;;;;;4435364;32;20443;-66
2022/03/17 04:19:26;;;;;;;1.60;1.50;;;5.70;99.90;;;;;;4436204;32;20068;-65
2022/03/17 04:21:53;;;;;;;15.88;2.67;;;5.80;99.90;;;;;;4436620;32;20080;-65
2022/03/17 04:24:19;;;;;;;2.10;1.05;;;5.80;99.90;;;;;;4432371;32;20137;-65
2022/03/17 04:26:45;;;;;;;2.15;1.80;;;5.90;99.90;;;;;;4434313;32;20077;-65
2022/03/17 04:29:12;;;;;;;2.08;1.85;;;5.90;99.90;;;;;;4434596;32;20077;-65
2022/03/17 04:31:39;;;;;;;3.80;1.83;;;5.90;99.90;;;;;;4434213;32;20128;-65
2022/03/17 04:34:04;;;;;;;1.50;1.37;;;5.80;99.90;;;;;;4430171;32;20124;-65
2022/03/17 04:36:31;;;;;;;10.73;3.12;;;5.90;99.90;;;;;;4429438;32;20466;-65
2022/03/17 04:38:58;;;;;;;16.55;2.80;;;5.90;99.90;;;;;;4430662;32;20443;-65
2022/03/17 04:41:23;;;;;;;5.62;1.73;;;5.80;99.90;;;;;;4434602;32;20439;-65
2022/03/17 04:43:49;;;;;;;4.65;1.85;;;5.80;99.90;;;;;;4433442;32;20149;-65
2022/03/17 04:46:15;;;;;;;12.90;1.95;;;5.90;99.90;;;;;;4436511;32;20073;-65
2022/03/17 04:48:41;;;;;;;2.08;1.83;;;5.80;99.90;;;;;;4431172;32;20510;-65
2022/03/17 04:51:06;;;;;;;5.32;1.85;;;5.80;99.90;;;;;;4437342;32;20436;-65
2022/03/17 04:53:32;;;;;;;2.60;1.58;;;5.80;99.90;;;;;;4437962;32;20111;-65
2022/03/17 04:56:04;;;;;;;7.10;3.05;;;5.70;99.90;;;;;;4434640;32;20097;-65
2022/03/17 04:58:32;;;;;;;6.68;3.85;;;5.70;99.90;;;;;;4436704;32;20085;-65
2022/03/17 05:00:59;;;;;;;1.98;1.58;;;5.70;99.90;;;;;;4433916;32;20069;-65
2022/03/17 05:03:26;;;;;;;4.68;1.77;;;5.70;99.90;;;;;;4437642;32;20082;-65
2022/03/17 05:05:52;;;;;;;5.57;3.22;;;5.60;99.90;;;;;;4432726;32;20077;-65
2022/03/17 05:08:18;;;;;;;5.05;2.45;;;5.60;99.90;;;;;;4433674;32;20115;-65
2022/03/17 05:10:44;;;;;;;4.28;2.45;;;5.70;99.90;;;;;;4433697;32;20086;-65
2022/03/17 05:13:11;;;;;;;4.25;2.22;;;5.70;99.90;;;;;;4431681;32;20114;-66
2022/03/17 05:15:38;;;;;;;3.87;2.12;;;5.60;99.90;;;;;;4432465;32;20087;-65
2022/03/17 05:18:06;;;;;;;5.53;1.77;;;5.80;99.90;;;;;;4435658;32;20065;-65
2022/03/17 05:20:33;;;;;;;1.58;1.33;;;5.70;99.90;;;;;;4436721;32;20133;-65
2022/03/17 05:22:59;;;;;;;8.52;3.08;;;5.60;99.90;;;;;;4429647;32;20385;-66
2022/03/17 05:25:24;;;;;;;1.75;1.62;;;5.60;99.90;;;;;;4434233;32;20065;-66
2022/03/17 05:27:50;;;;;;;22.45;2.35;;;5.70;99.90;;;;;;4435145;32;20092;-66
2022/03/17 05:30:18;;;;;;;3.97;2.05;;;5.70;99.90;;;;;;4437063;32;20081;-66
2022/03/17 05:32:44;;;;;;;8.48;3.15;;;5.60;99.90;;;;;;4432466;32;20171;-66
2022/03/17 05:35:11;;;;;;;4.22;2.28;;;5.70;99.90;;;;;;4432286;32;20140;-65
2022/03/17 05:37:37;;;;;;;1.42;1.33;;;5.60;99.90;;;;;;4435211;32;20124;-66
2022/03/17 05:40:05;;;;;;;2.25;1.58;;;5.60;99.90;;;;;;4437812;32;20120;-66
2022/03/17 05:42:31;;;;;;;5.15;2.42;;;5.60;99.90;;;;;;4436756;32;20192;-65
2022/03/17 05:44:57;;;;;;;9.40;3.17;;;5.60;99.90;;;;;;4435680;32;20092;-65
2022/03/17 05:47:23;;;;;;;2.37;1.67;;;5.60;99.90;;;;;;4432939;32;20073;-65
2022/03/17 05:49:48;;;;;;;3.25;2.62;;;5.60;99.90;;;;;;4436706;32;20065;-66
2022/03/17 05:52:14;;;;;;;2.37;1.95;;;5.50;99.90;;;;;;4439984;32;20560;-66
2022/03/17 05:54:40;;;;;;;10.07;3.17;;;5.50;99.90;;;;;;4434188;32;20120;-66
2022/03/17 05:57:06;;;;;;;6.05;2.80;;;5.60;99.90;;;;;;4434783;32;20089;-66
2022/03/17 05:59:31;;;;;;;6.60;2.53;;;5.60;99.90;;;;;;4433175;32;20081;-65
2022/03/17 06:01:58;;;;;;;4.10;2.00;;;5.70;99.90;;;;;;4427779;32;20318;-66
2022/03/17 06:04:23;;;;;;;7.10;3.12;;;5.70;99.90;;;;;;4429742;32;20084;-65
2022/03/17 06:06:49;;;;;;;6.68;2.28;;;5.80;99.90;;;;;;4436298;32;20065;-65
2022/03/17 06:09:15;;;;;;;4.82;2.85;;;5.80;99.90;;;;;;4432182;32;20469;-65
2022/03/17 06:11:41;;;;;;;5.03;3.25;;;5.80;99.90;;;;;;4433285;32;20116;-66
2022/03/17 06:14:06;;;;;;;4.43;2.55;;;5.90;99.90;;;;;;4428400;32;20082;-66
2022/03/17 06:16:33;;;;;;;4.35;2.83;;;5.90;99.90;;;;;;4430612;32;20065;-66
2022/03/17 06:18:58;;;;;;;5.07;2.60;;;5.80;99.90;;;;;;4422040;32;20089;-65
2022/03/17 06:21:24;;;;;;;5.10;2.22;;;5.90;99.90;;;;;;4434317;32;20412;-65
2022/03/17 06:23:50;;;;;;;5.43;2.65;;;5.90;99.90;;;;;;4432875;32;20342;-65
2022/03/17 06:26:16;;;;;;;8.80;2.33;;;6.00;99.90;;;;;;4427423;32;20061;-65
2022/03/17 06:28:41;;;;;;;7.72;3.90;;;5.90;99.90;;;;;;4432157;32;20136;-66
2022/03/17 06:31:07;;;;;;;2.22;1.55;;;6.00;99.90;;;;;;4414913;32;20092;-66
2022/03/17 06:33:34;;;;;;;4.75;2.97;;;6.00;99.90;;;;;;4422386;32;20426;-65
2022/03/17 06:36:00;;;;;;;6.12;2.10;;;6.00;99.90;;;;;;4432296;32;20088;-65
2022/03/17 06:38:26;;;;;;;3.00;2.10;;;6.10;99.90;;;;;;4429895;32;20087;-66
2022/03/17 06:40:54;;;;;;;5.85;2.55;;;6.10;99.90;;;;;;4427989;32;20073;-66
2022/03/17 06:43:22;;;;;;;5.57;2.97;;;6.10;99.90;;;;;;4433070;32;20463;-65
2022/03/17 06:45:47;;;;;;;5.75;3.35;;;6.00;99.90;;;;;;4429093;32;20111;-67
2022/03/17 06:48:13;;;;;;;5.72;2.95;;;6.10;99.90;;;;;;4426472;32;20162;-67
2022/03/17 06:50:38;;;;;;;9.70;3.97;;;6.20;99.90;;;;;;4425077;32;20700;-66
2022/03/17 06:53:04;;;;;;;6.50;2.83;;;6.20;99.90;;;;;;4421914;32;20101;-67
2022/03/17 06:55:33;;;;;;;1.77;1.42;;;6.30;99.90;;;;;;4420174;32;20188;-65
2022/03/17 06:58:00;;;;;;;3.78;1.87;;;6.30;99.90;;;;;;4403822;32;20679;-65
2022/03/17 07:00:26;;;;;;;5.32;2.83;;;6.40;99.90;;;;;;4407673;32;20100;-66
2022/03/17 07:02:51;;;;;;;6.28;2.47;;;6.50;99.90;;;;;;4401193;32;20113;-65
2022/03/17 07:05:17;;;;;;;12.48;4.25;;;6.60;99.90;;;;;;4400672;32;20144;-66
2022/03/17 07:07:43;;;;;;;32.65;3.90;;;6.70;99.90;;;;;;4393923;32;20845;-65
2022/03/17 07:10:10;;;;;;;8.52;3.40;;;6.70;99.90;;;;;;4403129;32;20143;-65
2022/03/17 07:12:36;;;;;;;8.68;3.50;;;6.60;99.90;;;;;;4400657;32;20136;-65
2022/03/17 07:15:02;;;;;;;6.45;3.10;;;6.60;99.90;;;;;;4403392;32;20101;-65
2022/03/17 07:17:41;;;;;;;7.18;2.72;;;6.60;99.90;;;;;;4393040;32;20810;-65
2022/03/17 07:20:09;;;;;;;6.30;2.05;;;6.70;99.90;;;;;;4400861;32;20155;-65
2022/03/17 07:22:35;;;;;;;3.60;1.98;;;6.60;99.90;;;;;;4410345;32;20085;-66
2022/03/17 07:25:01;;;;;;;3.47;2.35;;;6.70;99.90;;;;;;4403699;32;20100;-66
2022/03/17 07:27:26;;;;;;;19.05;4.37;;;6.60;99.90;;;;;;4410722;32;20135;-66
2022/03/17 07:29:52;;;;;;;5.62;3.55;;;6.60;99.90;;;;;;4403880;32;21011;-66
2022/03/17 07:32:19;;;;;;;8.25;2.80;;;6.60;99.90;;;;;;4403019;32;20085;-66
2022/03/17 07:36:26;;;;;;;5.47;3.25;;;6.70;99.90;;;;;;4383127;32;1503669;-64
2022/03/17 07:38:56;;;;;;;7.53;2.40;;;6.70;99.90;;;;;;4412354;32;20093;-64
2022/03/17 07:41:22;;;;;;;5.25;2.47;;;6.70;99.90;;;;;;4412853;32;20124;-64
2022/03/17 07:43:48;;;;;;;10.23;4.65;;;6.70;99.90;;;;;;4425906;32;20199;-64
2022/03/17 07:46:14;;;;;;;9.43;3.28;;;6.80;99.90;;;;;;4410637;32;20120;-65
2022/03/17 07:48:41;;;;;;;7.07;3.53;;;6.80;99.90;;;;;;4425640;32;20117;-65
2022/03/17 07:51:07;;;;;;;4.10;1.95;;;6.80;99.90;;;;;;4432828;32;20084;-66
2022/03/17 07:53:33;;;;;;;4.90;3.35;;;7.00;99.90;;;;;;4420954;32;20093;-65
2022/03/17 07:55:58;;;;;;;6.60;3.40;;;7.00;99.90;;;;;;4421715;32;20121;-65
2022/03/17 07:58:24;;;;;;;2.47;2.03;;;7.00;99.90;;;;;;4424880;32;20599;-65
2022/03/17 08:00:52;;;;;;;2.50;2.03;;;7.10;99.90;;;;;;4404042;32;20080;-64
2022/03/17 08:03:18;;;;;;;3.53;2.42;;;7.00;99.90;;;;;;4423866;32;20081;-64
2022/03/17 08:05:46;;;;;;;4.53;2.85;;;7.10;99.90;;;;;;4420359;32;20109;-65
2022/03/17 08:08:12;;;;;;;12.30;2.80;;;7.30;99.90;;;;;;4427093;32;20698;-65
2022/03/17 08:10:38;;;;;;;5.25;2.22;;;7.20;99.90;;;;;;4415452;32;20182;-65
2022/03/17 08:13:05;;;;;;;8.68;3.60;;;7.30;99.90;;;;;;4426425;32;20080;-65
2022/03/17 08:15:31;;;;;;;8.57;3.12;;;7.50;99.90;;;;;;4426416;32;20557;-65
2022/03/17 08:17:56;;;;;;;7.22;3.78;;;7.50;99.90;;;;;;4423432;32;20183;-65
2022/03/17 08:20:22;;;;;;;10.30;3.28;;;7.40;99.90;;;;;;4422390;32;20068;-64
2022/03/17 08:22:49;;;;;;;13.88;3.05;;;7.50;99.90;;;;;;4417815;32;20430;-65
2022/03/17 08:25:15;;;;;;;5.37;2.12;;;7.50;99.90;;;;;;4419491;32;20089;-65
2022/03/17 08:27:42;;;;;;;6.57;3.42;;;7.60;99.90;;;;;;4426777;32;20166;-66
2022/03/17 08:30:08;;;;;;;10.20;3.65;;;7.70;99.90;;;;;;4430509;32;20253;-65
2022/03/17 08:32:34;;;;;;;9.80;3.30;;;7.80;99.90;;;;;;4425327;32;20256;-66
2022/03/17 08:34:59;;;;;;;7.35;2.67;;;7.90;99.90;;;;;;4424573;32;20151;-66
2022/03/17 08:37:25;;;;;;;5.25;2.90;;;7.90;99.90;;;;;;4429627;32;20098;-66
2022/03/17 08:39:51;;;;;;;4.82;2.65;;;8.00;99.90;;;;;;4434102;32;20088;-66
2022/03/17 08:42:17;;;;;;;2.75;1.95;;;8.00;99.90;;;;;;4431900;32;20081;-66
2022/03/17 08:44:43;;;;;;;2.47;1.35;;;8.20;99.90;;;;;;4438183;32;20424;-64
2022/03/17 08:49:24;;;;;;;5.80;2.80;;;8.20;99.90;;;;;;4420069;32;20097;-65
2022/03/17 08:49:54;;;;;;;6.03;2.87;;;8.10;99.90;;;;;;4399259;32;20378;-65
2022/03/17 08:52:20;;;;;;;7.50;2.17;;;8.20;99.90;;;;;;4407671;32;20151;-65
2022/03/17 08:54:46;;;;;;;2.80;2.00;;;8.30;99.90;;;;;;4389887;32;20835;-66
2022/03/17 08:57:12;;;;;;;8.52;2.22;;;8.30;99.90;;;;;;4418062;32;20152;-66
2022/03/17 08:59:38;;;;;;;3.75;2.15;;;8.40;99.90;;;;;;4415957;32;20173;-66
2022/03/17 09:02:07;;;;;;;5.05;2.70;;;8.50;99.90;;;;;;4412676;32;20065;-65
2022/03/17 09:04:34;;;;;;;11.20;3.10;;;8.50;99.90;;;;;;4408087;32;21454;-66
2022/03/17 09:07:01;;;;;;;4.57;2.60;;;8.30;99.90;;;;;;4414950;32;20721;-65
2022/03/17 09:09:28;;;;;;;4.62;2.45;;;8.40;99.90;;;;;;4414259;32;20085;-66
2022/03/17 09:11:54;;;;;;;4.50;2.62;;;8.40;99.90;;;;;;4411292;32;20068;-66
2022/03/17 09:14:21;;;;;;;2.92;1.98;;;8.40;99.90;;;;;;4404589;32;20070;-66
2022/03/17 09:16:47;;;;;;;6.37;3.05;;;8.50;99.90;;;;;;4413618;32;20436;-66
2022/03/17 09:19:12;;;;;;;10.55;3.05;;;8.50;99.90;;;;;;4411111;32;20084;-66
2022/03/17 09:21:38;;;;;;;6.15;2.67;;;8.60;99.90;;;;;;4414648;32;20223;-66
2022/03/17 09:24:04;;;;;;;10.07;3.05;;;8.50;99.90;;;;;;4413306;32;20070;-67
2022/03/17 09:26:31;;;;;;;11.35;3.78;;;8.40;99.90;;;;;;4415910;32;20074;-66
2022/03/17 09:28:56;;;;;;;4.28;2.85;;;8.50;99.90;;;;;;4419491;32;20167;-66
2022/03/17 09:31:22;;;;;;;4.65;2.55;;;8.50;99.90;;;;;;4412817;32;20141;-66
2022/03/17 09:33:48;;;;;;;4.10;2.90;;;8.40;99.90;;;;;;4417503;32;20541;-66
2022/03/17 09:36:16;;;;;;;1.70;1.58;;;8.40;99.90;;;;;;4412478;32;20378;-66
2022/03/17 09:38:42;;;;;;;11.12;1.95;;;8.40;99.90;;;;;;4416460;32;20105;-66
2022/03/17 09:41:24;;;;;;;3.47;2.65;;;8.40;99.90;;;;;;4419562;32;20060;-66
2022/03/17 09:43:51;;;;;;;3.85;2.70;;;8.40;99.90;;;;;;4425928;32;20577;-66
2022/03/17 09:46:18;;;;;;;9.38;2.28;;;8.40;99.90;;;;;;4418450;32;20146;-66
2022/03/17 09:48:44;;;;;;;9.18;3.00;;;8.40;99.90;;;;;;4416615;32;20096;-67
2022/03/17 09:51:12;;;;;;;5.87;2.00;;;8.40;99.90;;;;;;4415913;32;20093;-67
2022/03/17 09:53:37;;;;;;;3.92;2.12;;;8.50;99.90;;;;;;4410883;32;20588;-67
2022/03/17 09:56:03;;;;;;;16.95;4.62;;;8.50;99.90;;;;;;4409873;32;20162;-66
2022/03/17 09:58:28;;;;;;;5.80;3.28;;;8.60;99.90;;;;;;4413992;32;20144;-67
2022/03/17 10:00:54;;;;;;;5.05;2.78;;;8.60;99.90;;;;;;4415726;32;20101;-66
2022/03/17 10:03:25;;;;;;;5.68;2.67;;;8.70;99.90;;;;;;4414049;32;20065;-66
2022/03/17 10:05:52;;;;;;;7.07;3.40;;;8.70;99.90;;;;;;4405874;32;20104;-66
2022/03/17 10:08:20;;;;;;;6.00;2.87;;;8.80;99.90;;;;;;4417077;32;20519;-66
2022/03/17 10:10:47;;;;;;;6.93;2.62;;;8.70;99.90;;;;;;4418668;32;20591;-68
2022/03/17 10:13:16;;;;;;;5.55;2.53;;;8.90;99.90;;;;;;4411728;32;20077;-66
2022/03/17 10:15:43;;;;;;;5.50;2.83;;;8.90;99.90;;;;;;4417275;32;20093;-66
2022/03/17 10:18:18;;;;;;;8.63;3.50;;;8.90;99.90;;;;;;4414712;32;20111;-66
2022/03/17 10:20:44;;;;;;;11.80;1.95;;;9.00;99.90;;;;;;4394288;32;20186;-66
2022/03/17 10:23:11;;;;;;;6.72;3.00;;;9.00;99.90;;;;;;4408887;32;21293;-67
2022/03/17 10:25:37;;;;;;;9.13;2.75;;;9.10;99.90;;;;;;4410636;32;21236;-66
2022/03/17 10:28:03;;;;;;;5.45;2.42;;;9.30;99.90;;;;;;4405812;32;20154;-66
2022/03/17 10:30:33;;;;;;;3.05;1.77;;;9.30;99.90;;;;;;4406737;32;20247;-66
2022/03/17 10:33:03;;;;;;;7.85;2.97;;;9.50;99.90;;;;;;4411323;32;20073;-66
2022/03/17 10:35:35;;;;;;;5.03;2.40;;;9.50;99.90;;;;;;4407898;32;20136;-66
2022/03/17 10:38:11;;;;;;;6.50;2.33;;;9.50;99.90;;;;;;4400226;32;20073;-66
2022/03/17 10:40:37;;;;;;;4.47;2.00;;;9.60;99.90;;;;;;4418327;32;20057;-65
2022/03/17 10:43:22;;;;;;;1.90;1.67;;;9.70;99.90;;;;;;4417508;32;20089;-66
2022/03/17 10:46:04;;;;;;;3.65;1.65;;;9.80;99.90;;;;;;4413648;32;20100;-67
2022/03/17 10:48:30;;;;;;;5.85;2.15;;;9.90;99.90;;;;;;4413499;32;20123;-66
2022/03/17 10:50:56;;;;;;;9.35;2.97;;;10.00;99.90;;;;;;4411380;32;21080;-66
2022/03/17 10:53:30;;;;;;;6.03;3.00;;;10.00;99.90;;;;;;4413112;32;20399;-67
2022/03/17 10:56:12;;;;;;;4.03;2.03;;;10.10;99.90;;;;;;4418467;32;20065;-66
2022/03/17 10:58:42;;;;;;;21.83;3.92;;;10.20;99.90;;;;;;4417507;32;20633;-68
2022/03/17 11:01:08;;;;;;;5.47;2.35;;;10.30;99.90;;;;;;4417348;32;20077;-67
2022/03/17 11:03:34;;;;;;;4.57;2.25;;;10.40;99.90;;;;;;4418226;32;20570;-67
2022/03/17 11:05:59;;;;;;;4.95;2.58;;;10.30;99.90;;;;;;4413716;32;20086;-66
2022/03/17 11:08:25;;;;;;;13.90;2.80;;;10.30;99.90;;;;;;4407505;32;20101;-66
2022/03/17 11:10:51;;;;;;;3.85;2.12;;;10.20;99.90;;;;;;4415980;32;21063;-66
2022/03/17 11:13:17;;;;;;;18.73;3.35;;;10.20;99.90;;;;;;4417129;32;20163;-66
2022/03/17 11:16:01;;;;;;;3.47;2.25;;;10.20;99.90;;;;;;4422625;32;20171;-65
2022/03/17 11:18:30;;;;;;;2.65;1.83;;;10.30;99.90;;;;;;4416151;32;21280;-66
2022/03/17 11:21:17;;;;;;;8.50;2.25;;;10.40;99.90;;;;;;4408998;32;20163;-66
2022/03/17 11:23:55;;;;;;;8.85;2.53;;;10.50;99.90;;;;;;4404449;32;22179;-66
2022/03/17 11:26:27;;;;;;;5.03;3.05;;;10.60;99.90;;;;;;4419693;32;20093;-66
2022/03/17 11:29:01;;;;;;;7.75;2.45;;;10.70;99.90;;;;;;4420622;32;20093;-66
2022/03/17 11:31:27;;;;;;;15.07;2.12;;;10.70;99.90;;;;;;4425916;32;20060;-67
2022/03/17 11:33:59;;;;;;;6.60;3.40;;;10.70;99.90;;;;;;4422604;32;20068;-66
2022/03/17 11:36:24;;;;;;;3.15;1.92;;;10.60;99.90;;;;;;4408157;32;20706;-67
2022/03/17 11:39:12;;;;;;;2.33;2.10;;;10.50;99.90;;;;;;4424964;32;20193;-66
2022/03/17 11:41:44;;;;;;;3.50;1.65;;;10.70;99.90;;;;;;4414571;32;20568;-68
2022/03/17 11:44:10;;;;;;;6.28;3.20;;;10.80;99.90;;;;;;4418577;32;20072;-66
2022/03/17 11:46:40;;;;;;;6.22;2.03;;;11.10;99.90;;;;;;4419959;32;20090;-66
2022/03/17 11:49:24;;;;;;;5.60;2.40;;;11.20;99.90;;;;;;4423441;32;20058;-66
2022/03/17 11:51:53;;;;;;;3.92;1.92;;;11.00;99.90;;;;;;4415256;32;20459;-66
2022/03/17 11:54:19;;;;;;;2.90;2.03;;;11.10;99.90;;;;;;4397918;32;20394;-67
2022/03/17 11:56:47;;;;;;;3.70;2.05;;;11.20;99.90;;;;;;4402269;32;20115;-67
2022/03/17 11:59:16;;;;;;;7.60;2.58;;;11.40;99.90;;;;;;4397247;32;20096;-67
2022/03/17 12:01:44;;;;;;;3.78;1.73;;;11.40;99.90;;;;;;4407029;32;20427;-66
2022/03/17 12:04:22;;;;;;;6.97;2.55;;;11.30;99.90;;;;;;4410945;32;20511;-66
2022/03/17 12:07:06;;;;;;;4.90;2.22;;;11.40;99.90;;;;;;4408378;32;20101;-66
2022/03/17 12:09:35;;;;;;;2.47;2.00;;;11.60;99.90;;;;;;4393289;32;20171;-66
2022/03/17 12:12:02;;;;;;;2.67;1.87;;;11.80;99.90;;;;;;4408801;32;20088;-66
2022/03/17 12:14:29;;;;;;;10.35;2.72;;;11.90;99.90;;;;;;4411388;32;20566;-67
2022/03/17 12:17:12;;;;;;;3.87;2.05;;;12.00;99.90;;;;;;4416849;32;20564;-66
2022/03/17 12:19:40;;;;;;;6.40;2.33;;;11.90;99.90;;;;;;4412150;32;20089;-66
2022/03/17 12:22:37;;;;;;;14.23;3.95;;;11.70;99.90;;;;;;4410871;32;20856;-66
2022/03/17 12:25:13;;;;;;;4.68;2.40;;;11.70;99.90;;;;;;4402204;32;20514;-66
2022/03/17 12:27:40;;;;;;;10.20;2.28;;;11.70;99.90;;;;;;4411319;32;20386;-66
2022/03/17 12:30:08;;;;;;;4.65;2.72;;;11.60;99.90;;;;;;4417950;32;20118;-67
2022/03/17 12:32:37;;;;;;;2.97;2.03;;;11.60;99.90;;;;;;4417595;32;20430;-66
2022/03/17 12:35:04;;;;;;;7.18;3.15;;;11.60;99.90;;;;;;4404927;32;20085;-66
2022/03/17 12:37:33;;;;;;;4.40;2.03;;;11.60;99.90;;;;;;4408570;32;20261;-66
2022/03/17 12:40:01;;;;;;;5.07;1.85;;;11.50;99.90;;;;;;4397411;32;20199;-67
2022/03/17 12:42:28;;;;;;;7.15;2.50;;;11.50;99.90;;;;;;4403571;32;20094;-66
2022/03/17 12:45:11;;;;;;;2.95;2.20;;;11.50;99.90;;;;;;4406330;32;20783;-68
2022/03/17 12:47:39;;;;;;;5.50;1.65;;;11.40;99.90;;;;;;4416311;32;20122;-67
2022/03/17 12:50:08;;;;;;;5.57;2.62;;;11.50;99.90;;;;;;4415194;32;20439;-67
2022/03/17 12:52:34;;;;;;;4.90;2.30;;;11.50;99.90;;;;;;4414818;32;20147;-66
2022/03/17 12:55:01;;;;;;;10.70;2.22;;;11.60;99.90;;;;;;4417642;32;20057;-66
2022/03/17 12:57:29;;;;;;;3.50;2.33;;;11.70;99.90;;;;;;4417608;32;20081;-67
2022/03/17 12:59:56;;;;;;;7.30;2.47;;;11.70;99.90;;;;;;4417300;32;20371;-66